sensor_id;sensor_type;location;lat;lon;timestamp;temperature;humidity
14140;DHT22;7150;53.514;9.988;2023-06-04T00:00:35;20.50;54.40
14140;DHT22;7150;53.514;9.988;2023-06-04T00:03:01;20.40;54.70
14140;DHT22;7150;53.514;9.988;2023-06-04T00:05:26;20.30;54.90
14140;DHT22;7150;53.514;9.988;2023-06-04T00:07:52;20.30;55.20
14140;DHT22;7150;53.514;9.988;2023-06-04T00:10:17;20.20;55.40
14140;DHT22;7150;53.514;9.988;2023-06-04T00:12:43;20.20;55.60
14140;DHT22;7150;53.514;9.988;2023-06-04T00:15:09;20.20;55.70
14140;DHT22;7150;53.514;9.988;2023-06-04T00:17:35;20.10;55.90
14140;DHT22;7150;53.514;9.988;2023-06-04T00:20:00;20.10;56.10
14140;DHT22;7150;53.514;9.988;2023-06-04T00:22:26;20.10;56.20
14140;DHT22;7150;53.514;9.988;2023-06-04T00:24:51;20.00;56.30
14140;DHT22;7150;53.514;9.988;2023-06-04T00:27:17;20.00;56.40
14140;DHT22;7150;53.514;9.988;2023-06-04T00:29:43;20.00;56.60
14140;DHT22;7150;53.514;9.988;2023-06-04T00:32:08;19.90;56.60
14140;DHT22;7150;53.514;9.988;2023-06-04T00:34:34;19.90;56.90
14140;DHT22;7150;53.514;9.988;2023-06-04T00:36:59;19.90;57.00
14140;DHT22;7150;53.514;9.988;2023-06-04T00:39:26;19.90;57.30
14140;DHT22;7150;53.514;9.988;2023-06-04T00:41:52;19.90;57.50
14140;DHT22;7150;53.514;9.988;2023-06-04T00:44:17;19.90;57.60
14140;DHT22;7150;53.514;9.988;2023-06-04T00:46:44;19.90;57.70
14140;DHT22;7150;53.514;9.988;2023-06-04T00:49:11;19.90;57.80
14140;DHT22;7150;53.514;9.988;2023-06-04T00:51:37;19.90;57.80
14140;DHT22;7150;53.514;9.988;2023-06-04T00:54:04;19.90;58.00
14140;DHT22;7150;53.514;9.988;2023-06-04T00:56:35;19.90;58.00
14140;DHT22;7150;53.514;9.988;2023-06-04T00:59:00;19.90;57.90
14140;DHT22;7150;53.514;9.988;2023-06-04T01:04:00;20.00;57.80
14140;DHT22;7150;53.514;9.988;2023-06-04T01:06:34;19.90;57.70
14140;DHT22;7150;53.514;9.988;2023-06-04T01:09:01;19.90;57.80
14140;DHT22;7150;53.514;9.988;2023-06-04T01:11:34;19.90;57.90
14140;DHT22;7150;53.514;9.988;2023-06-04T01:14:00;19.90;57.90
14140;DHT22;7150;53.514;9.988;2023-06-04T01:16:29;19.90;57.70
14140;DHT22;7150;53.514;9.988;2023-06-04T01:18:58;19.90;57.30
14140;DHT22;7150;53.514;9.988;2023-06-04T01:21:26;19.90;57.00
14140;DHT22;7150;53.514;9.988;2023-06-04T01:23:56;19.90;57.00
14140;DHT22;7150;53.514;9.988;2023-06-04T01:26:27;19.90;57.00
14140;DHT22;7150;53.514;9.988;2023-06-04T01:28:54;19.80;57.00
14140;DHT22;7150;53.514;9.988;2023-06-04T01:31:21;19.80;57.30
14140;DHT22;7150;53.514;9.988;2023-06-04T01:34:00;19.70;57.20
14140;DHT22;7150;53.514;9.988;2023-06-04T01:36:25;19.70;57.50
14140;DHT22;7150;53.514;9.988;2023-06-04T01:38:51;19.60;57.70
14140;DHT22;7150;53.514;9.988;2023-06-04T01:41:17;19.60;57.80
14140;DHT22;7150;53.514;9.988;2023-06-04T01:43:43;19.50;57.80
14140;DHT22;7150;53.514;9.988;2023-06-04T01:46:08;19.50;58.00
14140;DHT22;7150;53.514;9.988;2023-06-04T01:48:34;19.50;58.20
14140;DHT22;7150;53.514;9.988;2023-06-04T01:51:00;19.40;58.20
14140;DHT22;7150;53.514;9.988;2023-06-04T01:53:26;19.40;58.20
14140;DHT22;7150;53.514;9.988;2023-06-04T01:55:51;19.30;58.40
14140;DHT22;7150;53.514;9.988;2023-06-04T01:58:18;19.30;58.50
14140;DHT22;7150;53.514;9.988;2023-06-04T02:00:48;19.30;58.60
14140;DHT22;7150;53.514;9.988;2023-06-04T02:03:15;19.20;58.50
14140;DHT22;7150;53.514;9.988;2023-06-04T02:05:41;19.20;58.60
14140;DHT22;7150;53.514;9.988;2023-06-04T02:08:06;19.20;58.70
14140;DHT22;7150;53.514;9.988;2023-06-04T02:10:32;19.20;58.80
14140;DHT22;7150;53.514;9.988;2023-06-04T02:13:00;19.10;58.70
14140;DHT22;7150;53.514;9.988;2023-06-04T02:15:26;19.10;58.90
14140;DHT22;7150;53.514;9.988;2023-06-04T02:17:55;19.10;59.10
14140;DHT22;7150;53.514;9.988;2023-06-04T02:20:23;19.10;59.20
14140;DHT22;7150;53.514;9.988;2023-06-04T02:22:49;19.10;59.40
14140;DHT22;7150;53.514;9.988;2023-06-04T02:25:14;19.10;59.60
14140;DHT22;7150;53.514;9.988;2023-06-04T02:27:40;19.10;59.50
14140;DHT22;7150;53.514;9.988;2023-06-04T02:30:06;19.20;59.40
14140;DHT22;7150;53.514;9.988;2023-06-04T02:32:32;19.20;59.30
14140;DHT22;7150;53.514;9.988;2023-06-04T02:34:59;19.20;59.20
14140;DHT22;7150;53.514;9.988;2023-06-04T02:37:24;19.20;59.20
14140;DHT22;7150;53.514;9.988;2023-06-04T02:39:50;19.20;59.10
14140;DHT22;7150;53.514;9.988;2023-06-04T02:42:15;19.10;59.00
14140;DHT22;7150;53.514;9.988;2023-06-04T02:44:41;19.10;58.90
14140;DHT22;7150;53.514;9.988;2023-06-04T02:47:07;19.10;59.00
14140;DHT22;7150;53.514;9.988;2023-06-04T02:49:32;19.10;59.00
14140;DHT22;7150;53.514;9.988;2023-06-04T02:51:58;19.10;59.00
14140;DHT22;7150;53.514;9.988;2023-06-04T02:54:23;19.10;59.10
14140;DHT22;7150;53.514;9.988;2023-06-04T02:56:49;19.10;59.20
14140;DHT22;7150;53.514;9.988;2023-06-04T02:59:14;19.00;59.10
14140;DHT22;7150;53.514;9.988;2023-06-04T03:01:40;19.00;59.20
14140;DHT22;7150;53.514;9.988;2023-06-04T03:04:06;19.00;59.20
14140;DHT22;7150;53.514;9.988;2023-06-04T03:06:35;19.00;59.30
14140;DHT22;7150;53.514;9.988;2023-06-04T03:09:03;18.90;59.90
14140;DHT22;7150;53.514;9.988;2023-06-04T03:11:29;18.90;59.30
14140;DHT22;7150;53.514;9.988;2023-06-04T03:13:55;18.90;59.30
14140;DHT22;7150;53.514;9.988;2023-06-04T03:16:21;18.90;59.30
14140;DHT22;7150;53.514;9.988;2023-06-04T03:18:46;18.90;59.30
14140;DHT22;7150;53.514;9.988;2023-06-04T03:21:12;18.80;59.40
14140;DHT22;7150;53.514;9.988;2023-06-04T03:23:38;18.80;59.60
14140;DHT22;7150;53.514;9.988;2023-06-04T03:26:05;18.80;59.80
14140;DHT22;7150;53.514;9.988;2023-06-04T03:28:32;18.80;59.90
14140;DHT22;7150;53.514;9.988;2023-06-04T03:30:58;18.70;59.90
14140;DHT22;7150;53.514;9.988;2023-06-04T03:33:24;18.70;60.00
14140;DHT22;7150;53.514;9.988;2023-06-04T03:35:50;18.70;60.20
14140;DHT22;7150;53.514;9.988;2023-06-04T03:38:18;18.70;60.30
14140;DHT22;7150;53.514;9.988;2023-06-04T03:40:43;18.70;60.40
14140;DHT22;7150;53.514;9.988;2023-06-04T03:43:09;18.70;60.60
14140;DHT22;7150;53.514;9.988;2023-06-04T03:45:35;18.70;60.70
14140;DHT22;7150;53.514;9.988;2023-06-04T03:48:00;18.70;61.00
14140;DHT22;7150;53.514;9.988;2023-06-04T03:50:26;18.70;61.20
14140;DHT22;7150;53.514;9.988;2023-06-04T03:52:51;18.70;61.30
14140;DHT22;7150;53.514;9.988;2023-06-04T03:55:17;18.70;61.30
14140;DHT22;7150;53.514;9.988;2023-06-04T03:57:42;18.70;61.50
14140;DHT22;7150;53.514;9.988;2023-06-04T04:00:09;18.70;61.60
14140;DHT22;7150;53.514;9.988;2023-06-04T04:02:39;18.70;61.80
14140;DHT22;7150;53.514;9.988;2023-06-04T04:05:05;18.70;61.90
14140;DHT22;7150;53.514;9.988;2023-06-04T04:07:31;18.70;61.90
14140;DHT22;7150;53.514;9.988;2023-06-04T04:09:57;18.70;62.00
14140;DHT22;7150;53.514;9.988;2023-06-04T04:12:22;18.70;62.70
14140;DHT22;7150;53.514;9.988;2023-06-04T04:14:48;18.70;62.10
14140;DHT22;7150;53.514;9.988;2023-06-04T04:17:14;18.80;62.40
14140;DHT22;7150;53.514;9.988;2023-06-04T04:19:39;18.80;62.30
14140;DHT22;7150;53.514;9.988;2023-06-04T04:22:05;18.80;62.40
14140;DHT22;7150;53.514;9.988;2023-06-04T04:24:31;18.80;62.60
14140;DHT22;7150;53.514;9.988;2023-06-04T04:26:59;18.80;62.90
14140;DHT22;7150;53.514;9.988;2023-06-04T04:29:25;18.90;63.20
14140;DHT22;7150;53.514;9.988;2023-06-04T04:31:51;18.90;63.20
14140;DHT22;7150;53.514;9.988;2023-06-04T04:34:17;18.90;63.20
14140;DHT22;7150;53.514;9.988;2023-06-04T04:36:45;18.90;63.00
14140;DHT22;7150;53.514;9.988;2023-06-04T04:39:19;18.90;62.60
14140;DHT22;7150;53.514;9.988;2023-06-04T04:41:44;19.00;62.00
14140;DHT22;7150;53.514;9.988;2023-06-04T04:44:10;19.10;60.10
14140;DHT22;7150;53.514;9.988;2023-06-04T04:46:35;19.10;59.60
14140;DHT22;7150;53.514;9.988;2023-06-04T04:49:01;19.10;59.40
14140;DHT22;7150;53.514;9.988;2023-06-04T04:51:27;19.10;59.50
14140;DHT22;7150;53.514;9.988;2023-06-04T04:53:52;19.10;59.40
14140;DHT22;7150;53.514;9.988;2023-06-04T04:56:20;19.10;59.20
14140;DHT22;7150;53.514;9.988;2023-06-04T04:58:45;19.20;59.20
14140;DHT22;7150;53.514;9.988;2023-06-04T05:01:11;19.20;59.10
14140;DHT22;7150;53.514;9.988;2023-06-04T05:03:36;19.20;59.10
14140;DHT22;7150;53.514;9.988;2023-06-04T05:06:02;19.20;58.90
14140;DHT22;7150;53.514;9.988;2023-06-04T05:08:27;19.20;58.90
14140;DHT22;7150;53.514;9.988;2023-06-04T05:10:53;19.20;58.80
14140;DHT22;7150;53.514;9.988;2023-06-04T05:13:18;19.20;59.50
14140;DHT22;7150;53.514;9.988;2023-06-04T05:15:44;19.20;59.10
14140;DHT22;7150;53.514;9.988;2023-06-04T05:18:10;19.20;59.20
14140;DHT22;7150;53.514;9.988;2023-06-04T05:20:36;19.30;59.30
14140;DHT22;7150;53.514;9.988;2023-06-04T05:23:03;19.30;59.20
14140;DHT22;7150;53.514;9.988;2023-06-04T05:25:29;19.30;59.30
14140;DHT22;7150;53.514;9.988;2023-06-04T05:27:56;19.40;59.40
14140;DHT22;7150;53.514;9.988;2023-06-04T05:30:22;19.40;59.50
14140;DHT22;7150;53.514;9.988;2023-06-04T05:32:47;19.50;60.50
14140;DHT22;7150;53.514;9.988;2023-06-04T05:35:15;19.40;60.00
14140;DHT22;7150;53.514;9.988;2023-06-04T05:37:41;19.50;60.20
14140;DHT22;7150;53.514;9.988;2023-06-04T05:40:08;19.50;60.20
14140;DHT22;7150;53.514;9.988;2023-06-04T05:42:34;19.50;60.20
14140;DHT22;7150;53.514;9.988;2023-06-04T05:44:59;19.50;60.20
14140;DHT22;7150;53.514;9.988;2023-06-04T05:47:26;19.50;60.20
14140;DHT22;7150;53.514;9.988;2023-06-04T05:49:54;19.50;60.30
14140;DHT22;7150;53.514;9.988;2023-06-04T05:52:19;19.60;60.30
14140;DHT22;7150;53.514;9.988;2023-06-04T05:54:45;19.60;60.30
14140;DHT22;7150;53.514;9.988;2023-06-04T05:57:10;19.60;60.50
14140;DHT22;7150;53.514;9.988;2023-06-04T05:59:36;19.60;60.70
14140;DHT22;7150;53.514;9.988;2023-06-04T06:02:01;19.60;60.90
14140;DHT22;7150;53.514;9.988;2023-06-04T06:04:27;19.70;61.20
14140;DHT22;7150;53.514;9.988;2023-06-04T06:06:53;19.70;61.20
14140;DHT22;7150;53.514;9.988;2023-06-04T06:09:19;19.80;61.30
14140;DHT22;7150;53.514;9.988;2023-06-04T06:11:45;19.80;61.20
14140;DHT22;7150;53.514;9.988;2023-06-04T06:14:10;19.80;61.10
14140;DHT22;7150;53.514;9.988;2023-06-04T06:16:36;19.80;61.20
14140;DHT22;7150;53.514;9.988;2023-06-04T06:19:02;19.80;61.30
14140;DHT22;7150;53.514;9.988;2023-06-04T06:21:27;19.80;61.60
14140;DHT22;7150;53.514;9.988;2023-06-04T06:23:54;19.80;61.70
14140;DHT22;7150;53.514;9.988;2023-06-04T06:26:19;19.90;61.90
14140;DHT22;7150;53.514;9.988;2023-06-04T06:28:45;20.00;61.80
14140;DHT22;7150;53.514;9.988;2023-06-04T06:31:10;20.00;61.90
14140;DHT22;7150;53.514;9.988;2023-06-04T06:33:36;20.00;61.70
14140;DHT22;7150;53.514;9.988;2023-06-04T06:36:07;20.10;61.70
14140;DHT22;7150;53.514;9.988;2023-06-04T06:38:32;20.10;61.70
14140;DHT22;7150;53.514;9.988;2023-06-04T06:40:58;20.10;61.60
14140;DHT22;7150;53.514;9.988;2023-06-04T06:43:23;20.10;61.50
14140;DHT22;7150;53.514;9.988;2023-06-04T06:45:48;20.20;61.50
14140;DHT22;7150;53.514;9.988;2023-06-04T06:48:14;20.20;61.40
14140;DHT22;7150;53.514;9.988;2023-06-04T06:50:39;20.30;61.40
14140;DHT22;7150;53.514;9.988;2023-06-04T06:53:05;20.30;61.30
14140;DHT22;7150;53.514;9.988;2023-06-04T06:55:30;20.30;61.50
14140;DHT22;7150;53.514;9.988;2023-06-04T06:57:56;20.30;61.90
14140;DHT22;7150;53.514;9.988;2023-06-04T07:00:21;20.30;62.10
14140;DHT22;7150;53.514;9.988;2023-06-04T07:02:47;20.40;62.40
14140;DHT22;7150;53.514;9.988;2023-06-04T07:05:13;20.50;62.30
14140;DHT22;7150;53.514;9.988;2023-06-04T07:07:40;20.50;62.20
14140;DHT22;7150;53.514;9.988;2023-06-04T07:10:06;20.50;61.60
14140;DHT22;7150;53.514;9.988;2023-06-04T07:12:31;20.50;61.60
14140;DHT22;7150;53.514;9.988;2023-06-04T07:14:57;20.60;61.90
14140;DHT22;7150;53.514;9.988;2023-06-04T07:17:22;20.60;61.90
14140;DHT22;7150;53.514;9.988;2023-06-04T07:19:48;20.60;61.60
14140;DHT22;7150;53.514;9.988;2023-06-04T07:22:13;20.70;61.50
14140;DHT22;7150;53.514;9.988;2023-06-04T07:24:41;20.70;61.20
14140;DHT22;7150;53.514;9.988;2023-06-04T07:27:14;20.70;60.70
14140;DHT22;7150;53.514;9.988;2023-06-04T07:29:42;20.70;60.40
14140;DHT22;7150;53.514;9.988;2023-06-04T07:32:08;20.80;60.40
14140;DHT22;7150;53.514;9.988;2023-06-04T07:34:33;20.80;60.30
14140;DHT22;7150;53.514;9.988;2023-06-04T07:36:59;20.80;60.20
14140;DHT22;7150;53.514;9.988;2023-06-04T07:39:25;20.90;60.20
14140;DHT22;7150;53.514;9.988;2023-06-04T07:41:50;20.90;59.80
14140;DHT22;7150;53.514;9.988;2023-06-04T07:44:16;21.00;59.70
14140;DHT22;7150;53.514;9.988;2023-06-04T07:46:41;20.90;59.80
14140;DHT22;7150;53.514;9.988;2023-06-04T07:49:08;20.90;59.80
14140;DHT22;7150;53.514;9.988;2023-06-04T07:51:33;21.00;59.60
14140;DHT22;7150;53.514;9.988;2023-06-04T07:54:00;21.00;59.60
14140;DHT22;7150;53.514;9.988;2023-06-04T07:56:26;21.00;59.60
14140;DHT22;7150;53.514;9.988;2023-06-04T07:58:52;21.00;59.60
14140;DHT22;7150;53.514;9.988;2023-06-04T08:01:17;21.00;59.60
14140;DHT22;7150;53.514;9.988;2023-06-04T08:03:43;21.00;59.50
14140;DHT22;7150;53.514;9.988;2023-06-04T08:06:09;21.10;59.00
14140;DHT22;7150;53.514;9.988;2023-06-04T08:08:35;21.20;58.60
14140;DHT22;7150;53.514;9.988;2023-06-04T08:11:01;21.20;58.90
14140;DHT22;7150;53.514;9.988;2023-06-04T08:13:26;21.20;58.90
14140;DHT22;7150;53.514;9.988;2023-06-04T08:15:52;21.20;59.00
14140;DHT22;7150;53.514;9.988;2023-06-04T08:18:17;21.30;58.90
14140;DHT22;7150;53.514;9.988;2023-06-04T08:20:43;21.40;58.40
14140;DHT22;7150;53.514;9.988;2023-06-04T08:23:08;21.40;58.20
14140;DHT22;7150;53.514;9.988;2023-06-04T08:25:34;21.40;58.20
14140;DHT22;7150;53.514;9.988;2023-06-04T08:27:59;21.50;58.40
14140;DHT22;7150;53.514;9.988;2023-06-04T08:30:25;21.60;58.10
14140;DHT22;7150;53.514;9.988;2023-06-04T08:32:53;21.60;57.80
14140;DHT22;7150;53.514;9.988;2023-06-04T08:35:18;21.60;57.60
14140;DHT22;7150;53.514;9.988;2023-06-04T08:37:44;21.60;57.30
14140;DHT22;7150;53.514;9.988;2023-06-04T08:40:10;21.60;57.00
14140;DHT22;7150;53.514;9.988;2023-06-04T08:42:44;21.70;56.90
14140;DHT22;7150;53.514;9.988;2023-06-04T08:45:11;21.70;56.80
14140;DHT22;7150;53.514;9.988;2023-06-04T08:47:48;21.70;56.60
14140;DHT22;7150;53.514;9.988;2023-06-04T08:50:17;21.80;55.30
14140;DHT22;7150;53.514;9.988;2023-06-04T08:52:44;21.80;55.00
14140;DHT22;7150;53.514;9.988;2023-06-04T08:55:11;21.70;55.00
14140;DHT22;7150;53.514;9.988;2023-06-04T08:57:39;21.70;55.20
14140;DHT22;7150;53.514;9.988;2023-06-04T09:00:06;21.80;55.00
14140;DHT22;7150;53.514;9.988;2023-06-04T09:02:36;21.80;54.70
14140;DHT22;7150;53.514;9.988;2023-06-04T09:05:05;21.80;54.20
14140;DHT22;7150;53.514;9.988;2023-06-04T09:07:36;21.80;54.00
14140;DHT22;7150;53.514;9.988;2023-06-04T09:10:07;21.90;54.10
14140;DHT22;7150;53.514;9.988;2023-06-04T09:12:36;21.90;53.90
14140;DHT22;7150;53.514;9.988;2023-06-04T09:15:02;21.90;53.90
14140;DHT22;7150;53.514;9.988;2023-06-04T09:17:28;22.00;54.20
14140;DHT22;7150;53.514;9.988;2023-06-04T09:19:53;22.00;54.30
14140;DHT22;7150;53.514;9.988;2023-06-04T09:22:19;22.10;53.70
14140;DHT22;7150;53.514;9.988;2023-06-04T09:24:47;22.20;53.20
14140;DHT22;7150;53.514;9.988;2023-06-04T09:27:19;22.20;53.20
14140;DHT22;7150;53.514;9.988;2023-06-04T09:29:57;22.20;53.10
14140;DHT22;7150;53.514;9.988;2023-06-04T09:32:28;22.30;52.70
14140;DHT22;7150;53.514;9.988;2023-06-04T09:34:55;22.30;52.70
14140;DHT22;7150;53.514;9.988;2023-06-04T09:37:22;22.40;52.10
14140;DHT22;7150;53.514;9.988;2023-06-04T09:39:56;22.40;51.80
14140;DHT22;7150;53.514;9.988;2023-06-04T09:42:23;22.40;51.10
14140;DHT22;7150;53.514;9.988;2023-06-04T09:44:48;22.40;51.30
14140;DHT22;7150;53.514;9.988;2023-06-04T09:47:14;22.50;51.10
14140;DHT22;7150;53.514;9.988;2023-06-04T09:49:47;22.50;50.90
14140;DHT22;7150;53.514;9.988;2023-06-04T09:52:14;22.50;51.00
14140;DHT22;7150;53.514;9.988;2023-06-04T09:54:41;22.50;51.20
14140;DHT22;7150;53.514;9.988;2023-06-04T09:57:16;22.50;51.30
14140;DHT22;7150;53.514;9.988;2023-06-04T09:59:49;22.50;51.00
14140;DHT22;7150;53.514;9.988;2023-06-04T10:02:19;22.60;50.80
14140;DHT22;7150;53.514;9.988;2023-06-04T10:04:49;22.60;50.40
14140;DHT22;7150;53.514;9.988;2023-06-04T10:07:18;22.60;50.10
14140;DHT22;7150;53.514;9.988;2023-06-04T10:09:44;22.80;50.30
14140;DHT22;7150;53.514;9.988;2023-06-04T10:12:14;22.80;50.00
14140;DHT22;7150;53.514;9.988;2023-06-04T10:14:52;22.80;50.00
14140;DHT22;7150;53.514;9.988;2023-06-04T10:17:22;22.80;50.00
14140;DHT22;7150;53.514;9.988;2023-06-04T10:19:49;22.80;49.80
14140;DHT22;7150;53.514;9.988;2023-06-04T10:22:17;22.80;49.90
14140;DHT22;7150;53.514;9.988;2023-06-04T10:24:43;22.80;49.50
14140;DHT22;7150;53.514;9.988;2023-06-04T10:27:11;22.90;49.20
14140;DHT22;7150;53.514;9.988;2023-06-04T10:29:39;22.90;49.50
14140;DHT22;7150;53.514;9.988;2023-06-04T10:32:05;23.00;49.20
14140;DHT22;7150;53.514;9.988;2023-06-04T10:34:31;23.00;49.00
14140;DHT22;7150;53.514;9.988;2023-06-04T10:36:57;22.90;48.40
14140;DHT22;7150;53.514;9.988;2023-06-04T10:39:26;23.00;48.50
14140;DHT22;7150;53.514;9.988;2023-06-04T10:42:05;23.10;48.20
14140;DHT22;7150;53.514;9.988;2023-06-04T10:44:32;23.10;48.20
14140;DHT22;7150;53.514;9.988;2023-06-04T10:47:20;23.10;48.30
14140;DHT22;7150;53.514;9.988;2023-06-04T10:49:47;23.10;48.50
14140;DHT22;7150;53.514;9.988;2023-06-04T10:52:12;23.10;48.60
14140;DHT22;7150;53.514;9.988;2023-06-04T10:54:38;23.20;48.80
14140;DHT22;7150;53.514;9.988;2023-06-04T10:57:14;23.20;48.70
14140;DHT22;7150;53.514;9.988;2023-06-04T10:59:39;23.30;48.90
14140;DHT22;7150;53.514;9.988;2023-06-04T11:02:07;23.30;48.50
14140;DHT22;7150;53.514;9.988;2023-06-04T11:04:32;23.40;48.70
14140;DHT22;7150;53.514;9.988;2023-06-04T11:07:01;23.40;48.80
14140;DHT22;7150;53.514;9.988;2023-06-04T11:09:27;23.40;49.00
14140;DHT22;7150;53.514;9.988;2023-06-04T11:11:59;23.50;49.20
14140;DHT22;7150;53.514;9.988;2023-06-04T11:14:26;23.50;49.60
14140;DHT22;7150;53.514;9.988;2023-06-04T11:16:51;23.40;49.60
14140;DHT22;7150;53.514;9.988;2023-06-04T11:19:17;23.50;50.00
14140;DHT22;7150;53.514;9.988;2023-06-04T11:21:43;23.50;50.20
14140;DHT22;7150;53.514;9.988;2023-06-04T11:24:11;23.50;49.50
14140;DHT22;7150;53.514;9.988;2023-06-04T11:26:37;23.60;49.20
14140;DHT22;7150;53.514;9.988;2023-06-04T11:29:12;23.70;48.50
14140;DHT22;7150;53.514;9.988;2023-06-04T11:31:44;23.70;48.50
14140;DHT22;7150;53.514;9.988;2023-06-04T11:34:10;23.60;48.70
14140;DHT22;7150;53.514;9.988;2023-06-04T11:36:39;23.70;48.70
14140;DHT22;7150;53.514;9.988;2023-06-04T11:39:05;23.80;49.10
14140;DHT22;7150;53.514;9.988;2023-06-04T11:41:35;23.80;49.20
14140;DHT22;7150;53.514;9.988;2023-06-04T11:44:05;24.00;49.00
14140;DHT22;7150;53.514;9.988;2023-06-04T11:46:39;24.10;48.60
14140;DHT22;7150;53.514;9.988;2023-06-04T11:49:04;24.20;48.50
14140;DHT22;7150;53.514;9.988;2023-06-04T11:51:30;24.40;47.80
14140;DHT22;7150;53.514;9.988;2023-06-04T11:53:56;24.40;47.70
14140;DHT22;7150;53.514;9.988;2023-06-04T11:56:24;24.40;48.00
14140;DHT22;7150;53.514;9.988;2023-06-04T11:58:51;24.40;48.00
14140;DHT22;7150;53.514;9.988;2023-06-04T12:01:16;24.50;48.20
14140;DHT22;7150;53.514;9.988;2023-06-04T12:03:42;24.60;48.20
14140;DHT22;7150;53.514;9.988;2023-06-04T12:06:17;24.60;47.80
14140;DHT22;7150;53.514;9.988;2023-06-04T12:08:54;24.60;47.60
14140;DHT22;7150;53.514;9.988;2023-06-04T12:13:58;24.60;48.00
14140;DHT22;7150;53.514;9.988;2023-06-04T12:16:24;24.70;48.50
14140;DHT22;7150;53.514;9.988;2023-06-04T12:18:51;24.70;48.70
14140;DHT22;7150;53.514;9.988;2023-06-04T12:21:24;24.70;48.50
14140;DHT22;7150;53.514;9.988;2023-06-04T12:23:54;24.80;48.80
14140;DHT22;7150;53.514;9.988;2023-06-04T12:26:21;24.90;48.10
14140;DHT22;7150;53.514;9.988;2023-06-04T12:29:01;24.80;48.40
14140;DHT22;7150;53.514;9.988;2023-06-04T12:31:27;24.90;48.50
14140;DHT22;7150;53.514;9.988;2023-06-04T12:34:00;24.90;48.90
14140;DHT22;7150;53.514;9.988;2023-06-04T12:36:26;24.90;47.80
14140;DHT22;7150;53.514;9.988;2023-06-04T12:38:52;24.90;48.00
14140;DHT22;7150;53.514;9.988;2023-06-04T12:41:17;25.00;47.90
14140;DHT22;7150;53.514;9.988;2023-06-04T12:43:43;25.00;47.70
14140;DHT22;7150;53.514;9.988;2023-06-04T12:46:09;25.10;47.80
14140;DHT22;7150;53.514;9.988;2023-06-04T12:48:35;25.20;47.90
14140;DHT22;7150;53.514;9.988;2023-06-04T12:51:00;25.20;47.70
14140;DHT22;7150;53.514;9.988;2023-06-04T12:53:26;25.10;47.40
14140;DHT22;7150;53.514;9.988;2023-06-04T12:55:51;25.00;47.80
14140;DHT22;7150;53.514;9.988;2023-06-04T12:58:17;25.10;47.80
14140;DHT22;7150;53.514;9.988;2023-06-04T13:00:42;25.20;47.80
14140;DHT22;7150;53.514;9.988;2023-06-04T13:03:08;25.20;47.70
14140;DHT22;7150;53.514;9.988;2023-06-04T13:05:36;25.20;46.90
14140;DHT22;7150;53.514;9.988;2023-06-04T13:08:02;25.20;46.70
14140;DHT22;7150;53.514;9.988;2023-06-04T13:10:27;25.10;46.90
14140;DHT22;7150;53.514;9.988;2023-06-04T13:12:53;25.20;46.70
14140;DHT22;7150;53.514;9.988;2023-06-04T13:15:18;25.20;46.60
14140;DHT22;7150;53.514;9.988;2023-06-04T13:17:44;25.10;46.50
14140;DHT22;7150;53.514;9.988;2023-06-04T13:20:10;25.20;47.20
14140;DHT22;7150;53.514;9.988;2023-06-04T13:22:35;25.20;47.30
14140;DHT22;7150;53.514;9.988;2023-06-04T13:25:01;25.30;46.80
14140;DHT22;7150;53.514;9.988;2023-06-04T13:27:27;25.30;46.20
14140;DHT22;7150;53.514;9.988;2023-06-04T13:29:52;25.30;46.30
14140;DHT22;7150;53.514;9.988;2023-06-04T13:32:18;25.40;46.40
14140;DHT22;7150;53.514;9.988;2023-06-04T13:34:43;25.40;45.90
14140;DHT22;7150;53.514;9.988;2023-06-04T13:37:08;25.40;45.80
14140;DHT22;7150;53.514;9.988;2023-06-04T13:39:38;25.50;46.60
14140;DHT22;7150;53.514;9.988;2023-06-04T13:42:03;25.60;45.90
14140;DHT22;7150;53.514;9.988;2023-06-04T13:44:29;25.60;46.10
14140;DHT22;7150;53.514;9.988;2023-06-04T13:46:54;25.60;46.20
14140;DHT22;7150;53.514;9.988;2023-06-04T13:49:20;25.70;46.50
14140;DHT22;7150;53.514;9.988;2023-06-04T13:51:46;25.80;45.70
14140;DHT22;7150;53.514;9.988;2023-06-04T13:54:11;25.90;45.40
14140;DHT22;7150;53.514;9.988;2023-06-04T13:56:36;26.00;45.50
14140;DHT22;7150;53.514;9.988;2023-06-04T13:59:02;26.00;45.10
14140;DHT22;7150;53.514;9.988;2023-06-04T14:01:27;26.00;44.60
14140;DHT22;7150;53.514;9.988;2023-06-04T14:03:53;26.00;44.80
14140;DHT22;7150;53.514;9.988;2023-06-04T14:06:18;26.10;45.20
14140;DHT22;7150;53.514;9.988;2023-06-04T14:08:44;26.20;45.40
14140;DHT22;7150;53.514;9.988;2023-06-04T14:11:09;26.30;45.50
14140;DHT22;7150;53.514;9.988;2023-06-04T14:13:37;26.50;45.70
14140;DHT22;7150;53.514;9.988;2023-06-04T14:16:02;26.60;45.00
14140;DHT22;7150;53.514;9.988;2023-06-04T14:18:29;26.70;45.40
14140;DHT22;7150;53.514;9.988;2023-06-04T14:20:55;26.90;44.90
14140;DHT22;7150;53.514;9.988;2023-06-04T14:23:20;27.10;44.50
14140;DHT22;7150;53.514;9.988;2023-06-04T14:25:45;27.30;43.80
14140;DHT22;7150;53.514;9.988;2023-06-04T14:28:11;27.30;44.10
14140;DHT22;7150;53.514;9.988;2023-06-04T14:30:36;27.50;44.30
14140;DHT22;7150;53.514;9.988;2023-06-04T14:33:02;27.60;44.10
14140;DHT22;7150;53.514;9.988;2023-06-04T14:35:27;27.80;43.60
14140;DHT22;7150;53.514;9.988;2023-06-04T14:37:53;28.00;43.40
14140;DHT22;7150;53.514;9.988;2023-06-04T14:40:18;28.10;43.40
14140;DHT22;7150;53.514;9.988;2023-06-04T14:42:44;28.20;42.50
14140;DHT22;7150;53.514;9.988;2023-06-04T14:45:09;28.20;42.40
14140;DHT22;7150;53.514;9.988;2023-06-04T14:47:35;28.20;43.20
14140;DHT22;7150;53.514;9.988;2023-06-04T14:50:01;28.20;43.40
14140;DHT22;7150;53.514;9.988;2023-06-04T14:52:26;28.30;43.70
14140;DHT22;7150;53.514;9.988;2023-06-04T14:54:53;28.40;43.70
14140;DHT22;7150;53.514;9.988;2023-06-04T14:57:18;28.70;43.90
14140;DHT22;7150;53.514;9.988;2023-06-04T14:59:45;29.30;42.50
14140;DHT22;7150;53.514;9.988;2023-06-04T15:02:10;30.00;41.70
14140;DHT22;7150;53.514;9.988;2023-06-04T15:04:36;30.70;41.70
14140;DHT22;7150;53.514;9.988;2023-06-04T15:07:02;31.60;41.20
14140;DHT22;7150;53.514;9.988;2023-06-04T15:09:29;32.90;40.00
14140;DHT22;7150;53.514;9.988;2023-06-04T15:11:54;33.90;38.50
14140;DHT22;7150;53.514;9.988;2023-06-04T15:14:20;35.20;38.10
14140;DHT22;7150;53.514;9.988;2023-06-04T15:16:45;36.50;36.90
14140;DHT22;7150;53.514;9.988;2023-06-04T15:19:11;37.70;35.00
14140;DHT22;7150;53.514;9.988;2023-06-04T15:21:36;38.60;34.20
14140;DHT22;7150;53.514;9.988;2023-06-04T15:24:02;39.40;32.60
14140;DHT22;7150;53.514;9.988;2023-06-04T15:26:27;39.60;31.50
14140;DHT22;7150;53.514;9.988;2023-06-04T15:28:53;39.80;31.60
14140;DHT22;7150;53.514;9.988;2023-06-04T15:31:21;40.10;31.70
14140;DHT22;7150;53.514;9.988;2023-06-04T15:33:46;40.40;31.60
14140;DHT22;7150;53.514;9.988;2023-06-04T15:36:12;40.80;31.20
14140;DHT22;7150;53.514;9.988;2023-06-04T15:38:37;41.00;30.40
14140;DHT22;7150;53.514;9.988;2023-06-04T15:41:03;41.00;30.40
14140;DHT22;7150;53.514;9.988;2023-06-04T15:43:28;41.20;30.60
14140;DHT22;7150;53.514;9.988;2023-06-04T15:45:54;41.50;30.70